Current Weather

Roi Et

Roi Et, Thailand (VTUV)

Report from: Thursday, July 18, 2024 2:00 PM UTC
Current time: Thursday, July 18, 2024 3:19 PM UTC

Nearby weather – Weather history – Daily summaries
Weather forecast

Temperature26.0°C (78.8°F)
Dew point26.0°C (78.8°F)
Winds 3 kts (1.5 m/s, 3.5 mph) South (180°)
Visibility6.2 mi. (10 km)
Clouds Few clouds 3,000 ft. (914 m)
Altimeter29.71 in.Hg (1006 mB)
Relative humidity100 %
Density altitude1,964 ft. (599 m)
Remarks No significant changes expected in the next two hours
Flight conditions Visual Meteorological Conditions
Raw dataVTUV 181400Z 18003KT 9999 FEW030 26/26 Q1006 NOSIG
An error has occurred. This application may no longer respond until reloaded. Reload 🗙